Time;durP1;ratioP1;P1;durP2;ratioP2;P2;SDS_P1;SDS_P2;PMS_P1;PMS_P2;Temp;Humidity;BMP_temperature;BMP_pressure;BME280_temperature;BME280_humidity;BME280_pressure;Samples;Min_cycle;Max_cycle;Signal;HPM_P1;HPM_P2
2023/08/14 00:00:51;;;;;;;8.40;5.00;;;;;;;22.15;57.90;100337.80;102758;1259;138808;-70
2023/08/14 00:03:35;;;;;;;9.40;4.50;;;;;;;22.11;57.82;100336.72;102750;1258;1002169;-70
2023/08/14 00:06:02;;;;;;;7.20;4.20;;;;;;;22.12;58.04;100337.88;104278;1259;97630;-71
2023/08/14 00:08:29;;;;;;;5.00;4.30;;;;;;;22.13;58.15;100334.11;103575;1263;138326;-70
2023/08/14 00:10:56;;;;;;;9.00;4.40;;;;;;;22.13;58.23;100335.83;103962;1258;107427;-71
2023/08/14 00:13:23;;;;;;;6.30;4.60;;;;;;;22.14;58.23;100334.23;104209;1259;138651;-70
2023/08/14 00:15:51;;;;;;;7.80;4.20;;;;;;;22.13;57.95;100331.77;104250;1258;106941;-71
2023/08/14 00:18:18;;;;;;;9.20;4.30;;;;;;;22.11;57.86;100330.14;104148;1258;139238;-70
2023/08/14 00:20:46;;;;;;;7.50;4.20;;;;;;;22.11;57.90;100332.61;103436;1258;112488;-70
2023/08/14 00:23:13;;;;;;;5.60;4.40;;;;;;;22.10;57.81;100331.65;103639;1258;107509;-70
2023/08/14 00:25:40;;;;;;;6.40;4.50;;;;;;;22.09;58.10;100332.12;104208;1258;139220;-69
2023/08/14 00:28:07;;;;;;;7.10;4.60;;;;;;;22.07;58.02;100332.61;103626;1259;107609;-70
2023/08/14 00:30:34;;;;;;;5.30;4.40;;;;;;;22.04;58.16;100329.63;102744;1262;138965;-70
2023/08/14 00:33:01;;;;;;;5.50;4.20;;;;;;;22.03;58.60;100330.22;102884;1259;111335;-70
2023/08/14 00:35:28;;;;;;;6.50;4.30;;;;;;;22.01;58.59;100334.84;102802;1259;107076;-69
2023/08/14 00:37:55;;;;;;;6.80;4.30;;;;;;;21.99;58.94;100336.07;102626;1259;139227;-69
2023/08/14 00:40:22;;;;;;;8.10;4.30;;;;;;;21.96;58.79;100339.65;102793;1259;108431;-68
2023/08/14 00:42:50;;;;;;;7.50;4.20;;;;;;;21.93;58.91;100345.56;102787;1259;138742;-68
2023/08/14 00:45:17;;;;;;;5.80;4.20;;;;;;;21.88;58.91;100346.45;103141;1258;112169;-68
2023/08/14 00:47:46;;;;;;;8.00;4.60;;;;;;;21.83;59.06;100344.02;102878;1259;109875;-68
2023/08/14 00:50:15;;;;;;;6.30;4.80;;;;;;;21.78;58.94;100343.17;103688;1259;138955;-68
2023/08/14 00:52:45;;;;;;;7.00;4.50;;;;;;;21.75;59.24;100344.81;103056;1259;109889;-69
2023/08/14 00:55:15;;;;;;;7.80;4.80;;;;;;;21.71;59.27;100347.90;104135;1259;138836;-69
2023/08/14 00:57:42;;;;;;;10.30;4.40;;;;;;;21.69;59.71;100354.09;102995;1263;111166;-69
2023/08/14 01:00:12;;;;;;;7.80;3.90;;;;;;;21.67;59.77;100350.91;102942;1263;108761;-70
2023/08/14 01:02:39;;;;;;;7.30;4.40;;;;;;;21.62;59.84;100360.86;103466;1259;1003113;-69
2023/08/14 01:05:06;;;;;;;10.60;5.10;;;;;;;21.58;60.24;100358.53;104046;1258;107120;-69
2023/08/14 01:07:34;;;;;;;5.30;4.70;;;;;;;21.56;60.52;100357.04;104158;1257;139149;-69
2023/08/14 01:10:02;;;;;;;9.20;6.10;;;;;;;21.55;60.38;100361.23;103362;1259;111255;-69
2023/08/14 01:12:42;;;;;;;6.90;4.80;;;;;;;21.50;60.60;100361.23;102977;1259;138606;-69
2023/08/14 01:15:15;;;;;;;5.60;4.90;;;;;;;21.45;60.61;100359.52;102923;1263;97873;-69
2023/08/14 01:17:49;;;;;;;5.30;4.60;;;;;;;21.41;60.79;100355.34;103422;1261;109091;-70
2023/08/14 01:20:18;;;;;;;8.90;5.90;;;;;;;21.38;60.84;100354.20;103317;1264;138654;-68
2023/08/14 01:22:56;;;;;;;8.80;5.20;;;;;;;21.36;61.13;100366.01;102975;1259;112573;-68
2023/08/14 01:25:37;;;;;;;13.70;5.80;;;;;;;21.32;61.33;100382.23;102768;1263;138536;-68
2023/08/14 01:28:05;;;;;;;9.70;5.70;;;;;;;21.17;61.47;100387.38;103563;1259;95968;-68
2023/08/14 01:30:32;;;;;;;10.00;5.60;;;;;;;21.03;61.68;100386.66;103862;1259;139191;-69
2023/08/14 01:32:59;;;;;;;8.10;6.10;;;;;;;20.95;61.85;100395.69;102967;1259;97859;-68
2023/08/14 01:35:31;;;;;;;7.80;5.70;;;;;;;20.88;62.06;100392.53;104283;1258;111518;-69
2023/08/14 01:38:04;;;;;;;7.30;5.70;;;;;;;20.84;62.52;100386.83;103358;1259;139017;-68
2023/08/14 01:40:41;;;;;;;6.40;5.60;;;;;;;20.81;62.80;100388.05;103471;1258;97778;-68
2023/08/14 01:43:12;;;;;;;8.40;6.60;;;;;;;20.78;63.33;100392.73;102847;1263;138360;-68
2023/08/14 01:45:40;;;;;;;9.60;6.30;;;;;;;20.74;63.42;100395.33;103637;1259;97824;-68
2023/08/14 01:48:10;;;;;;;7.50;6.30;;;;;;;20.72;63.78;100393.53;102912;1259;113480;-67
2023/08/14 01:50:39;;;;;;;8.00;6.10;;;;;;;20.70;64.12;100393.30;103653;1261;106718;-68
2023/08/14 01:53:06;;;;;;;8.10;6.30;;;;;;;20.69;64.43;100388.77;102376;1259;1003136;-68
2023/08/14 01:55:34;;;;;;;6.80;6.00;;;;;;;20.67;64.88;100387.70;103177;1259;139283;-68
2023/08/14 01:58:01;;;;;;;6.60;5.90;;;;;;;20.64;65.44;100385.98;103488;1263;97624;-67
2023/08/14 02:00:31;;;;;;;13.20;6.40;;;;;;;20.58;65.11;100381.08;103337;1259;138489;-70
2023/08/14 02:03:00;;;;;;;7.20;6.40;;;;;;;20.53;65.37;100374.42;103684;1259;107327;-69
2023/08/14 02:05:27;;;;;;;8.80;6.80;;;;;;;20.50;65.87;100375.44;103275;1257;98300;-68
2023/08/14 02:07:55;;;;;;;7.90;6.30;;;;;;;20.48;66.10;100375.63;102813;1262;140647;-68
2023/08/14 02:10:23;;;;;;;8.70;6.20;;;;;;;20.48;66.11;100371.73;102730;1264;97826;-68
2023/08/14 02:12:52;;;;;;;11.70;6.20;;;;;;;20.48;66.14;100372.59;103465;1258;138441;-68
2023/08/14 02:15:20;;;;;;;8.10;5.70;;;;;;;20.49;66.22;100370.39;102864;1259;108136;-68
2023/08/14 02:17:48;;;;;;;8.50;6.40;;;;;;;20.52;66.44;100369.84;103596;1259;99483;-68
2023/08/14 02:20:15;;;;;;;8.60;6.70;;;;;;;20.57;66.73;100371.59;102825;1259;138539;-69
2023/08/14 02:22:42;;;;;;;9.60;6.90;;;;;;;20.63;66.66;100375.75;102967;1259;97722;-68
2023/08/14 02:25:10;;;;;;;9.20;6.50;;;;;;;20.66;66.85;100378.56;102817;1258;138368;-68
2023/08/14 02:27:37;;;;;;;8.50;7.00;;;;;;;20.68;66.78;100380.36;104292;1258;107720;-69
2023/08/14 02:30:05;;;;;;;10.40;7.50;;;;;;;20.71;66.71;100383.50;103845;1259;96752;-68
2023/08/14 02:32:32;;;;;;;8.70;7.00;;;;;;;20.74;66.90;100386.29;103777;1258;138413;-68
2023/08/14 02:35:00;;;;;;;13.40;7.50;;;;;;;20.74;66.78;100384.70;104242;1259;96179;-68
2023/08/14 02:37:27;;;;;;;7.30;6.40;;;;;;;20.73;66.81;100383.18;104247;1258;138718;-69
2023/08/14 02:39:53;;;;;;;9.80;7.40;;;;;;;20.74;67.05;100384.91;104296;1257;109276;-69
2023/08/14 02:42:21;;;;;;;11.60;7.20;;;;;;;20.74;66.99;100386.51;104188;1258;138653;-69
2023/08/14 02:44:50;;;;;;;10.40;6.80;;;;;;;20.74;67.10;100394.27;104317;1258;107781;-70
2023/08/14 02:47:17;;;;;;;8.00;7.00;;;;;;;20.75;67.11;100389.06;103644;1262;97207;-69
2023/08/14 02:49:44;;;;;;;9.40;7.50;;;;;;;20.76;67.03;100387.00;103995;1259;140699;-69
2023/08/14 02:52:11;;;;;;;7.60;6.70;;;;;;;20.77;66.99;100387.51;103186;1259;107962;-70
2023/08/14 02:54:38;;;;;;;7.80;7.00;;;;;;;20.77;67.13;100382.85;103215;1259;139149;-68
2023/08/14 02:57:05;;;;;;;7.60;6.80;;;;;;;20.78;67.08;100375.92;103808;1259;108051;-69
2023/08/14 02:59:33;;;;;;;9.40;7.40;;;;;;;20.78;67.17;100377.34;102809;1263;97937;-68
2023/08/14 03:02:00;;;;;;;8.10;6.90;;;;;;;20.76;66.97;100376.08;102888;1259;138336;-69
2023/08/14 03:04:29;;;;;;;8.70;7.40;;;;;;;20.75;67.19;100374.71;102860;1259;107273;-68
2023/08/14 03:06:57;;;;;;;9.30;8.20;;;;;;;20.75;67.28;100375.96;102799;1264;139126;-68
2023/08/14 03:09:24;;;;;;;10.30;8.10;;;;;;;20.73;67.27;100375.57;102927;1259;106615;-68
2023/08/14 03:11:51;;;;;;;9.50;7.20;;;;;;;20.72;67.38;100377.95;103442;1263;97804;-68
2023/08/14 03:14:18;;;;;;;10.50;8.30;;;;;;;20.70;67.59;100378.80;103058;1259;138754;-68
2023/08/14 03:16:45;;;;;;;10.70;7.80;;;;;;;20.69;67.57;100381.39;103641;1263;107236;-68
2023/08/14 03:19:12;;;;;;;12.10;8.00;;;;;;;20.63;67.68;100378.09;103104;1259;139235;-69
2023/08/14 03:21:39;;;;;;;9.40;6.80;;;;;;;20.58;67.65;100381.84;102919;1259;108692;-69
2023/08/14 03:24:07;;;;;;;10.10;7.90;;;;;;;20.57;68.09;100382.75;102908;1261;97711;-68
2023/08/14 03:26:34;;;;;;;13.50;8.10;;;;;;;20.58;68.14;100384.48;103654;1258;112742;-68
2023/08/14 03:29:02;;;;;;;9.90;8.10;;;;;;;20.58;68.36;100386.88;102955;1259;108183;-69
2023/08/14 03:31:31;;;;;;;12.20;7.90;;;;;;;20.60;68.26;100393.31;102823;1263;138637;-68
2023/08/14 03:33:59;;;;;;;11.30;8.10;;;;;;;20.60;68.38;100387.51;102919;1262;109043;-69
2023/08/14 03:36:27;;;;;;;8.80;7.70;;;;;;;20.58;68.60;100387.43;102755;1259;140127;-69
2023/08/14 03:38:54;;;;;;;11.50;8.50;;;;;;;20.58;68.71;100387.27;102942;1259;111417;-69
2023/08/14 03:41:22;;;;;;;13.20;7.70;;;;;;;20.58;68.84;100385.84;102743;1264;108325;-68
2023/08/14 03:43:49;;;;;;;11.60;7.60;;;;;;;20.57;68.92;100382.94;102807;1259;138684;-69
2023/08/14 03:46:16;;;;;;;12.70;7.60;;;;;;;20.59;68.96;100381.41;102870;1262;108583;-69
2023/08/14 03:48:44;;;;;;;14.40;7.90;;;;;;;20.60;69.09;100378.12;104082;1259;139906;-69
2023/08/14 03:51:11;;;;;;;14.60;8.40;;;;;;;20.61;69.03;100378.08;102895;1259;111812;-69
2023/08/14 03:53:38;;;;;;;10.10;8.70;;;;;;;20.61;69.24;100378.96;102902;1264;108195;-68
2023/08/14 03:56:06;;;;;;;11.50;7.60;;;;;;;20.62;69.28;100379.21;102857;1259;138892;-70
2023/08/14 03:58:33;;;;;;;9.00;7.50;;;;;;;20.65;69.40;100378.69;104203;1259;107628;-69
2023/08/14 04:01:00;;;;;;;9.20;7.50;;;;;;;20.67;69.27;100376.77;102951;1259;138606;-67
2023/08/14 04:03:27;;;;;;;15.20;8.70;;;;;;;20.68;69.19;100380.36;102906;1259;111908;-68
2023/08/14 04:05:57;;;;;;;9.80;8.80;;;;;;;20.66;69.24;100377.53;102832;1262;108312;-67
2023/08/14 04:08:24;;;;;;;12.20;9.00;;;;;;;20.63;69.43;100375.60;104117;1259;138767;-69
2023/08/14 04:10:57;;;;;;;13.90;8.80;;;;;;;20.62;69.54;100376.73;103681;1259;107728;-68
2023/08/14 04:13:24;;;;;;;12.50;9.10;;;;;;;20.62;69.60;100382.04;102761;1259;139023;-68
2023/08/14 04:15:51;;;;;;;12.80;8.60;;;;;;;20.61;69.71;100379.64;103375;1262;111166;-69
2023/08/14 04:18:18;;;;;;;11.50;8.50;;;;;;;20.60;69.88;100381.70;102678;1262;138901;-69
2023/08/14 04:20:45;;;;;;;12.40;8.80;;;;;;;20.60;69.80;100384.86;102970;1259;98640;-68
2023/08/14 04:23:13;;;;;;;10.80;8.50;;;;;;;20.61;70.03;100382.96;102951;1259;108264;-67
2023/08/14 04:25:40;;;;;;;12.60;9.10;;;;;;;20.65;70.21;100388.33;103527;1259;138777;-69
2023/08/14 04:28:08;;;;;;;13.40;8.50;;;;;;;20.70;70.19;100386.75;102748;1263;112648;-68
2023/08/14 04:30:35;;;;;;;14.60;8.60;;;;;;;20.80;70.22;100393.80;103119;1259;138913;-68
2023/08/14 04:33:02;;;;;;;13.00;8.40;;;;;;;20.92;70.15;100391.85;103372;1259;97792;-69
2023/08/14 04:35:29;;;;;;;11.80;8.70;;;;;;;21.05;70.02;100391.45;103253;1259;107337;-68
2023/08/14 04:37:58;;;;;;;8.70;7.80;;;;;;;21.16;69.63;100390.60;103057;1259;138669;-70
2023/08/14 04:40:24;;;;;;;12.20;9.30;;;;;;;21.30;69.53;100394.60;102856;1263;111772;-70
2023/08/14 04:42:52;;;;;;;12.00;8.70;;;;;;;21.41;69.41;100395.17;102778;1262;139048;-70
2023/08/14 04:45:20;;;;;;;14.60;9.00;;;;;;;21.53;69.09;100400.44;103285;1259;97935;-69
2023/08/14 04:47:47;;;;;;;13.70;8.70;;;;;;;21.63;68.88;100396.70;102932;1259;107069;-69
2023/08/14 04:50:14;;;;;;;12.40;8.80;;;;;;;21.75;68.72;100397.41;102811;1262;138754;-70
2023/08/14 04:52:41;;;;;;;11.60;8.50;;;;;;;21.90;68.54;100403.65;102931;1259;111477;-69
2023/08/14 04:55:09;;;;;;;9.80;7.80;;;;;;;22.12;68.31;100411.00;102679;1261;138659;-69
2023/08/14 04:57:38;;;;;;;9.00;7.40;;;;;;;22.83;68.37;100412.44;104228;1259;95747;-70
2023/08/14 05:00:11;;;;;;;11.50;7.40;;;;;;;24.20;66.55;100416.27;103654;1259;107886;-71
2023/08/14 05:02:39;;;;;;;7.50;6.70;;;;;;;25.72;64.30;100416.34;104317;1259;95726;-70
2023/08/14 05:05:06;;;;;;;10.00;7.00;;;;;;;27.18;61.62;100420.57;103718;1259;109803;-70
2023/08/14 05:07:33;;;;;;;14.50;6.60;;;;;;;28.55;58.92;100414.80;102640;1259;138072;-70
2023/08/14 05:10:00;;;;;;;8.60;6.50;;;;;;;29.87;56.14;100412.29;102865;1259;97804;-70
2023/08/14 05:12:27;;;;;;;8.70;6.70;;;;;;;31.03;53.06;100416.66;102618;1259;138534;-70
2023/08/14 05:14:55;;;;;;;9.40;6.70;;;;;;;32.06;50.44;100409.33;102884;1257;97796;-69
2023/08/14 05:17:22;;;;;;;8.70;6.30;;;;;;;32.93;48.43;100407.13;102781;1261;103193;-69
2023/08/14 05:19:49;;;;;;;8.80;5.70;;;;;;;33.78;46.32;100406.13;102621;1262;138016;-68
2023/08/14 05:22:19;;;;;;;6.70;5.40;;;;;;;34.65;44.89;100411.04;102818;1259;97875;-66
2023/08/14 05:24:46;;;;;;;6.40;5.40;;;;;;;35.61;42.99;100403.95;102851;1259;138000;-65
2023/08/14 05:27:13;;;;;;;7.50;5.20;;;;;;;36.57;41.45;100401.80;102994;1259;97952;-66
2023/08/14 05:29:40;;;;;;;5.30;4.70;;;;;;;37.57;39.70;100402.05;102925;1265;103060;-66
2023/08/14 05:32:07;;;;;;;9.80;5.10;;;;;;;38.52;37.95;100403.98;102742;1262;137833;-66
2023/08/14 05:34:34;;;;;;;10.80;5.40;;;;;;;39.26;36.47;100408.68;104312;1258;96241;-67
2023/08/14 05:37:01;;;;;;;6.80;5.00;;;;;;;40.09;35.37;100404.41;102886;1259;138106;-67
2023/08/14 05:39:28;;;;;;;5.40;4.90;;;;;;;41.01;34.07;100407.76;102931;1257;97900;-67
2023/08/14 05:41:55;;;;;;;8.30;4.80;;;;;;;41.40;32.42;100410.41;102971;1259;103711;-67
2023/08/14 05:44:22;;;;;;;10.10;5.10;;;;;;;41.04;32.08;100413.52;102769;1259;137999;-67
2023/08/14 05:46:49;;;;;;;9.60;5.50;;;;;;;41.57;31.54;100419.89;102998;1259;97775;-67
2023/08/14 05:49:16;;;;;;;5.70;5.00;;;;;;;42.05;30.32;100418.05;102799;1262;137751;-68
2023/08/14 05:51:44;;;;;;;9.10;4.50;;;;;;;42.48;29.93;100417.49;102829;1263;97818;-68
2023/08/14 05:54:11;;;;;;;8.80;4.80;;;;;;;43.07;29.29;100422.03;104326;1259;102578;-68
2023/08/14 05:56:38;;;;;;;6.10;4.50;;;;;;;43.64;28.66;100426.35;103404;1259;100310;-67
2023/08/14 05:59:06;;;;;;;9.70;5.20;;;;;;;44.22;27.58;100421.27;102938;1265;97774;-67
2023/08/14 06:01:33;;;;;;;12.40;5.10;;;;;;;44.54;26.30;100422.00;104171;1259;138787;-67
2023/08/14 06:04:01;;;;;;;7.30;4.00;;;;;;;44.76;26.12;100420.75;104258;1259;95787;-68
2023/08/14 06:06:28;;;;;;;6.00;4.20;;;;;;;45.31;25.72;100416.73;104193;1259;139913;-67
2023/08/14 06:08:55;;;;;;;7.50;4.00;;;;;;;45.90;25.21;100420.64;104282;1259;100067;-67
2023/08/14 06:11:25;;;;;;;8.90;3.80;;;;;;;46.45;24.65;100420.38;103029;1259;97880;-66
2023/08/14 06:13:52;;;;;;;9.60;4.50;;;;;;;47.07;24.02;100418.30;102741;1264;137731;-69
2023/08/14 06:16:19;;;;;;;77.20;18.80;;;;;;;47.59;23.35;100417.86;102929;1263;98433;-67
2023/08/14 06:18:48;;;;;;;53.50;14.40;;;;;;;47.89;22.81;100419.30;102806;1259;138227;-66
2023/08/14 06:21:15;;;;;;;32.70;11.30;;;;;;;48.34;22.35;100420.95;104262;1259;100742;-66
2023/08/14 06:23:42;;;;;;;22.90;7.60;;;;;;;48.85;21.75;100416.20;104240;1259;95780;-68
2023/08/14 06:26:09;;;;;;;24.50;7.80;;;;;;;49.23;21.33;100414.35;103615;1259;137918;-68
2023/08/14 06:28:36;;;;;;;18.00;6.90;;;;;;;49.60;20.83;100418.40;103093;1262;97803;-67
2023/08/14 06:31:04;;;;;;;15.90;5.20;;;;;;;49.83;20.28;100418.92;102827;1259;137856;-67
2023/08/14 06:33:31;;;;;;;10.40;5.10;;;;;;;50.07;20.12;100419.58;102896;1263;99971;-68
2023/08/14 06:35:59;;;;;;;10.00;3.90;;;;;;;50.44;19.78;100423.21;102972;1259;97809;-69
2023/08/14 06:38:26;;;;;;;7.90;3.80;;;;;;;50.70;19.32;100427.11;102806;1259;138764;-68
2023/08/14 06:40:53;;;;;;;7.50;4.00;;;;;;;50.70;18.83;100428.04;102956;1262;97910;-68
2023/08/14 06:43:21;;;;;;;6.90;3.60;;;;;;;50.70;18.69;100430.16;102841;1262;137919;-76
2023/08/14 06:45:48;;;;;;;8.20;3.80;;;;;;;50.71;18.68;100434.03;102795;1263;99039;-76
2023/08/14 06:48:15;;;;;;;8.30;3.80;;;;;;;50.72;18.37;100436.45;102918;1263;97775;-77
2023/08/14 06:50:42;;;;;;;9.70;3.80;;;;;;;50.72;18.39;100428.45;102825;1263;99065;-77
2023/08/14 06:53:09;;;;;;;3.70;3.40;;;;;;;50.69;18.29;100424.86;102733;1260;97902;-78
2023/08/14 06:55:36;;;;;;;6.50;3.70;;;;;;;50.80;18.07;100427.23;102708;1259;137858;-79
2023/08/14 06:58:04;;;;;;;5.60;3.30;;;;;;;50.98;17.95;100427.18;102786;1259;99309;-79
2023/08/14 07:00:31;;;;;;;10.10;3.80;;;;;;;51.08;17.75;100424.63;102852;1259;137909;-78
2023/08/14 07:02:58;;;;;;;7.40;3.90;;;;;;;50.58;17.47;100425.17;103081;1260;100364;-74
2023/08/14 07:05:26;;;;;;;6.70;3.20;;;;;;;49.86;18.06;100421.54;102770;1264;97905;-75
2023/08/14 07:07:53;;;;;;;9.80;3.50;;;;;;;49.35;18.25;100421.69;103708;1261;137685;-75
2023/08/14 07:10:20;;;;;;;5.30;3.50;;;;;;;48.70;18.64;100420.73;102898;1259;100152;-74
2023/08/14 07:12:48;;;;;;;9.40;3.80;;;;;;;48.52;18.77;100423.84;102736;1265;138211;-75
2023/08/14 07:15:15;;;;;;;8.20;3.30;;;;;;;48.24;18.88;100419.37;102773;1260;100881;-79
2023/08/14 07:17:42;;;;;;;4.60;3.10;;;;;;;48.31;18.84;100421.94;102844;1260;97690;-78
2023/08/14 07:20:12;;;;;;;5.40;3.40;;;;;;;48.67;18.78;100422.98;102713;1261;137738;-80
2023/08/14 07:22:39;;;;;;;7.60;3.40;;;;;;;49.02;18.78;100421.27;103079;1259;99214;-78
2023/08/14 07:25:08;;;;;;;5.70;3.40;;;;;;;49.38;18.47;100421.69;102785;1262;137796;-78
2023/08/14 07:27:35;;;;;;;6.80;3.40;;;;;;;49.80;18.24;100423.58;104236;1259;98839;-78
2023/08/14 07:30:02;;;;;;;7.00;3.40;;;;;;;50.13;18.08;100430.33;104264;1260;95974;-79
2023/08/14 07:32:29;;;;;;;7.60;2.90;;;;;;;50.46;17.59;100434.09;104221;1259;137743;-79
2023/08/14 07:34:56;;;;;;;2.80;2.60;;;;;;;50.32;16.69;100442.00;104261;1259;99663;-79
2023/08/14 07:37:23;;;;;;;3.70;2.70;;;;;;;49.73;16.48;100442.40;103627;1262;137813;-78
2023/08/14 07:39:50;;;;;;;6.80;2.70;;;;;;;49.20;16.55;100440.20;102810;1259;99257;-78
2023/08/14 07:42:17;;;;;;;6.90;2.80;;;;;;;48.45;17.09;100446.88;102699;1259;137938;-78
2023/08/14 07:44:44;;;;;;;5.10;3.00;;;;;;;47.67;17.49;100440.87;102889;1263;103121;-78
2023/08/14 07:47:12;;;;;;;8.10;2.80;;;;;;;46.83;18.01;100442.18;102819;1265;100311;-77
2023/08/14 07:49:39;;;;;;;5.80;3.40;;;;;;;46.52;18.63;100441.12;102716;1263;138538;-75
2023/08/14 07:52:09;;;;;;;8.10;2.70;;;;;;;46.31;18.87;100445.27;102853;1259;99062;-78
2023/08/14 07:54:36;;;;;;;6.30;3.30;;;;;;;46.14;19.11;100440.17;102716;1263;140336;-76
2023/08/14 07:57:03;;;;;;;6.30;3.20;;;;;;;46.00;19.03;100444.62;102772;1260;112485;-77
2023/08/14 07:59:30;;;;;;;5.10;3.00;;;;;;;45.46;19.14;100443.80;102781;1263;99135;-77
2023/08/14 08:01:57;;;;;;;7.30;3.10;;;;;;;44.88;19.30;100446.80;103040;1263;137565;-77
2023/08/14 08:04:24;;;;;;;5.00;2.70;;;;;;;43.73;19.96;100449.52;102745;1263;100415;-77
2023/08/14 08:06:53;;;;;;;4.30;3.00;;;;;;;42.37;20.97;100451.49;102754;1264;138078;-77
2023/08/14 08:09:20;;;;;;;4.20;2.80;;;;;;;41.51;21.74;100456.67;102820;1263;102701;-75
2023/08/14 08:11:47;;;;;;;5.10;2.90;;;;;;;41.05;22.40;100461.14;102743;1260;108686;-76
2023/08/14 08:14:16;;;;;;;3.60;3.20;;;;;;;40.46;23.09;100462.23;102722;1259;137988;-75
2023/08/14 08:16:44;;;;;;;7.30;3.60;;;;;;;40.28;23.77;100463.30;102772;1260;101845;-76
2023/08/14 08:19:11;;;;;;;6.30;3.30;;;;;;;39.93;23.84;100469.90;103473;1259;137940;-77
2023/08/14 08:21:38;;;;;;;5.00;2.80;;;;;;;38.98;24.59;100464.75;102835;1259;102916;-76
2023/08/14 08:24:07;;;;;;;4.40;3.20;;;;;;;38.12;25.63;100465.02;102750;1261;98941;-76
2023/08/14 08:26:34;;;;;;;7.60;3.30;;;;;;;37.22;26.57;100473.93;102747;1259;137562;-76
2023/08/14 08:29:02;;;;;;;4.20;3.10;;;;;;;36.69;27.55;100466.48;102828;1260;98874;-76
2023/08/14 08:31:29;;;;;;;4.70;3.20;;;;;;;36.56;28.03;100466.41;102690;1259;137920;-76
2023/08/14 08:33:56;;;;;;;7.00;3.40;;;;;;;36.02;28.39;100468.91;102790;1259;103687;-67
2023/08/14 08:36:24;;;;;;;5.20;3.90;;;;;;;35.35;29.45;100473.73;102753;1263;138471;-67
2023/08/14 08:38:51;;;;;;;6.90;3.20;;;;;;;35.26;30.03;100468.70;102693;1262;219741;-73
2023/08/14 08:41:26;;;;;;;9.30;3.50;;;;;;;35.65;30.05;100472.55;102696;1263;99243;-77
2023/08/14 08:44:00;;;;;;;5.50;3.20;;;;;;;35.60;29.80;100474.83;102660;1259;137712;-77
2023/08/14 08:46:29;;;;;;;6.70;3.20;;;;;;;35.55;30.20;100471.25;102742;1261;103704;-78
2023/08/14 08:48:56;;;;;;;5.60;2.90;;;;;;;35.67;30.15;100475.75;102716;1263;138550;-78
2023/08/14 08:51:24;;;;;;;3.60;2.80;;;;;;;35.68;30.11;100472.30;102747;1261;97887;-78
2023/08/14 08:53:52;;;;;;;5.00;3.30;;;;;;;35.33;30.48;100466.55;102855;1261;100341;-78
2023/08/14 08:56:20;;;;;;;3.00;2.80;;;;;;;35.25;30.77;100470.48;102660;1263;137945;-78
2023/08/14 08:58:47;;;;;;;4.10;3.10;;;;;;;35.54;30.87;100469.93;102809;1259;102646;-78
2023/08/14 09:01:15;;;;;;;3.30;3.00;;;;;;;35.85;30.70;100469.20;102705;1259;138192;-79
2023/08/14 09:03:44;;;;;;;4.70;3.10;;;;;;;35.88;30.56;100475.59;102853;1264;97791;-78
2023/08/14 09:06:11;;;;;;;4.50;3.60;;;;;;;35.52;30.70;100474.89;103458;1264;99806;-79
2023/08/14 09:08:39;;;;;;;4.10;3.60;;;;;;;34.70;31.35;100465.84;102849;1262;97801;-78
2023/08/14 09:11:08;;;;;;;5.40;3.80;;;;;;;34.08;32.37;100463.64;102875;1262;103705;-78
2023/08/14 09:13:39;;;;;;;6.20;3.90;;;;;;;34.00;32.59;100457.95;102679;1260;138545;-78
2023/08/14 09:16:08;;;;;;;6.10;4.00;;;;;;;34.16;32.95;100456.64;103328;1261;97888;-79
2023/08/14 09:18:35;;;;;;;4.20;3.70;;;;;;;34.28;32.90;100455.42;102684;1264;138376;-78
2023/08/14 09:21:04;;;;;;;4.40;4.00;;;;;;;34.27;33.01;100453.13;102683;1263;97789;-79
2023/08/14 09:23:34;;;;;;;5.70;3.70;;;;;;;34.33;33.11;100457.16;102813;1263;102909;-78
2023/08/14 09:26:11;;;;;;;5.90;4.00;;;;;;;34.37;32.86;100459.23;102751;1263;137925;-77
2023/08/14 09:28:40;;;;;;;5.30;3.90;;;;;;;34.20;33.10;100459.31;102901;1266;97828;-79
2023/08/14 09:31:13;;;;;;;9.20;4.00;;;;;;;34.13;33.52;100452.35;102759;1263;137904;-80
2023/08/14 09:33:41;;;;;;;7.30;3.90;;;;;;;34.21;33.97;100438.48;102804;1260;98025;-79
2023/08/14 09:36:11;;;;;;;9.20;4.70;;;;;;;34.46;33.65;100439.24;102840;1261;103583;-77
2023/08/14 09:38:38;;;;;;;8.10;4.30;;;;;;;34.26;33.73;100435.43;102721;1263;137694;-78
2023/08/14 09:41:06;;;;;;;7.90;4.90;;;;;;;33.93;34.00;100440.44;102803;1264;97888;-80
2023/08/14 09:43:34;;;;;;;6.40;5.30;;;;;;;33.27;34.84;100433.17;102753;1261;137692;-80
2023/08/14 09:46:04;;;;;;;4.90;4.30;;;;;;;32.55;35.36;100431.48;102900;1262;97786;-80
2023/08/14 09:48:43;;;;;;;6.80;4.80;;;;;;;31.96;36.31;100429.23;102826;1260;137970;-80
2023/08/14 09:51:16;;;;;;;7.80;4.60;;;;;;;31.41;37.42;100425.88;102863;1263;108313;-81
2023/08/14 09:53:51;;;;;;;9.50;5.40;;;;;;;31.11;38.27;100432.63;102906;1261;97706;-81
2023/08/14 09:56:19;;;;;;;7.40;6.20;;;;;;;30.75;39.24;100433.13;102571;1265;137891;-81
2023/08/14 09:58:47;;;;;;;8.00;5.50;;;;;;;30.32;39.77;100426.91;102867;1259;97895;-81
2023/08/14 10:01:15;;;;;;;7.20;5.60;;;;;;;29.98;40.62;100430.10;102700;1265;137725;-81
2023/08/14 10:03:43;;;;;;;7.90;5.70;;;;;;;29.66;41.56;100429.02;102805;1263;108164;-81
2023/08/14 10:06:12;;;;;;;10.20;5.20;;;;;;;29.58;41.97;100431.23;102798;1263;97832;-84
2023/08/14 10:08:43;;;;;;;6.30;4.80;;;;;;;30.02;42.26;100427.42;103182;1258;137588;-81
2023/08/14 10:11:14;;;;;;;6.90;5.60;;;;;;;30.72;41.87;100430.45;102706;1266;97804;-85
2023/08/14 10:13:55;;;;;;;7.40;5.50;;;;;;;31.02;41.08;100435.02;102773;1265;137584;-81
2023/08/14 10:16:25;;;;;;;6.60;5.40;;;;;;;31.37;41.09;100437.83;102822;1273;106298;-81
2023/08/14 10:18:57;;;;;;;6.20;5.30;;;;;;;31.73;40.37;100433.62;102768;1264;139888;-81
2023/08/14 10:21:29;;;;;;;6.10;5.20;;;;;;;32.12;39.95;100437.92;102901;1261;107296;-81
2023/08/14 10:23:59;;;;;;;5.40;4.90;;;;;;;32.31;39.32;100428.71;102852;1260;97823;-80
2023/08/14 10:26:26;;;;;;;9.10;6.10;;;;;;;32.39;38.72;100427.67;102728;1263;137571;-80
2023/08/14 10:28:56;;;;;;;8.90;4.70;;;;;;;32.83;39.05;100423.73;102814;1264;107806;-80
2023/08/14 10:31:23;;;;;;;5.70;4.80;;;;;;;33.39;38.16;100425.23;102630;1260;137950;-80
2023/08/14 10:33:51;;;;;;;9.80;4.70;;;;;;;33.64;37.29;100428.52;102781;1262;100262;-80
2023/08/14 10:36:22;;;;;;;12.10;4.70;;;;;;;33.69;36.77;100432.80;102899;1262;97820;-80
2023/08/14 10:38:50;;;;;;;5.90;4.10;;;;;;;33.78;36.08;100428.89;102861;1263;104160;-81
2023/08/14 10:41:35;;;;;;;8.40;4.50;;;;;;;33.72;35.91;100425.55;102764;1263;99570;-79
2023/08/14 10:44:07;;;;;;;5.00;4.20;;;;;;;33.75;35.80;100424.92;102406;1267;138298;-79
2023/08/14 10:46:38;;;;;;;5.50;4.10;;;;;;;33.77;35.57;100421.15;103186;1260;108012;-79
2023/08/14 10:49:05;;;;;;;7.00;4.40;;;;;;;33.73;35.63;100419.44;102747;1261;138834;-80
2023/08/14 10:51:34;;;;;;;6.70;4.70;;;;;;;33.74;35.65;100415.36;102732;1263;103866;-79
2023/08/14 10:54:10;;;;;;;6.30;4.20;;;;;;;33.80;35.61;100411.48;102825;1261;99729;-81
2023/08/14 10:56:46;;;;;;;4.30;3.40;;;;;;;34.00;35.81;100410.52;102773;1260;137513;-79
2023/08/14 10:59:24;;;;;;;6.20;4.10;;;;;;;34.44;35.42;100409.95;102694;1261;100061;-78
2023/08/14 11:02:06;;;;;;;6.40;4.10;;;;;;;34.69;35.22;100410.56;102665;1263;138081;-78
2023/08/14 11:04:36;;;;;;;7.30;3.80;;;;;;;34.70;34.43;100413.69;102853;1259;103621;-82
2023/08/14 11:07:11;;;;;;;6.60;3.80;;;;;;;34.53;34.59;100409.61;103927;1263;137899;-81
2023/08/14 11:09:42;;;;;;;6.70;3.60;;;;;;;34.51;34.46;100411.23;103580;1263;98351;-80
2023/08/14 11:12:11;;;;;;;6.50;4.20;;;;;;;34.27;34.83;100410.04;102858;1263;100113;-81
2023/08/14 11:14:41;;;;;;;5.90;4.10;;;;;;;34.05;35.16;100407.73;102818;1261;137833;-80